createdAt,value
2024-03-16T00:00:40.747Z,97.09
2024-03-16T00:01:40.746Z,97.61
2024-03-16T00:02:40.716Z,98.12
2024-03-16T00:03:40.773Z,98.63
2024-03-16T00:04:40.751Z,98.12
2024-03-16T00:05:40.757Z,98.58
2024-03-16T00:06:40.787Z,98.88
2024-03-16T00:07:40.814Z,99.29
2024-03-16T00:08:40.813Z,99.29
2024-03-16T00:09:40.862Z,99.19
2024-03-16T00:10:40.888Z,99.19
2024-03-16T00:11:40.904Z,99.91
2024-03-16T00:12:40.912Z,99.99
2024-03-16T00:13:40.947Z,99.99
2024-03-16T00:14:40.924Z,99.99
2024-03-16T00:15:40.991Z,99.99
2024-03-16T00:16:40.977Z,99.99
2024-03-16T00:17:41.046Z,99.99
2024-03-16T00:18:41.034Z,99.99
2024-03-16T00:19:41.009Z,99.99
2024-03-16T00:20:41.074Z,99.99
2024-03-16T00:21:41.071Z,99.99
2024-03-16T00:22:41.092Z,99.99
2024-03-16T00:23:41.069Z,99.99
2024-03-16T00:24:41.170Z,99.99
2024-03-16T00:25:41.145Z,99.99
2024-03-16T00:26:41.132Z,99.99
2024-03-16T00:27:41.150Z,99.99
2024-03-16T00:28:41.193Z,99.99
2024-03-16T00:29:41.186Z,99.99
2024-03-16T00:30:41.249Z,99.99
2024-03-16T00:31:41.222Z,99.99
2024-03-16T00:32:41.261Z,99.91
2024-03-16T00:33:41.328Z,99.80
2024-03-16T00:34:41.289Z,99.80
2024-03-16T00:35:41.322Z,99.99
2024-03-16T00:36:41.328Z,99.99
2024-03-16T00:37:41.323Z,99.80
2024-03-16T00:38:41.407Z,99.99
2024-03-16T00:39:41.409Z,99.75
2024-03-16T00:40:41.377Z,99.29
2024-03-16T00:41:41.401Z,99.80
2024-03-16T00:42:41.439Z,99.99
2024-03-16T00:43:41.503Z,99.99
2024-03-16T00:44:43.204Z,99.99
2024-03-16T00:45:41.459Z,99.99
2024-03-16T00:46:41.483Z,99.99
2024-03-16T00:47:41.554Z,99.99
2024-03-16T00:48:41.604Z,99.99
2024-03-16T00:49:41.628Z,99.99
2024-03-16T00:50:41.560Z,99.95
2024-03-16T00:51:41.619Z,99.99
2024-03-16T00:52:41.614Z,99.99
2024-03-16T00:53:41.609Z,99.99
2024-03-16T00:54:41.697Z,99.99
2024-03-16T00:55:41.716Z,99.99
2024-03-16T00:56:41.671Z,99.99
2024-03-16T00:57:41.721Z,99.99
2024-03-16T00:58:41.686Z,99.99
2024-03-16T00:59:41.774Z,99.99
2024-03-16T01:00:41.751Z,99.99
2024-03-16T01:01:41.771Z,99.99
2024-03-16T01:02:41.756Z,99.99
2024-03-16T01:03:41.811Z,99.99
2024-03-16T01:04:41.839Z,99.99
2024-03-16T01:05:41.966Z,99.99
2024-03-16T01:06:41.847Z,99.99
2024-03-16T01:07:41.885Z,99.99
2024-03-16T01:08:41.859Z,99.99
2024-03-16T01:09:41.920Z,99.99
2024-03-16T01:10:41.959Z,99.99
2024-03-16T01:11:42.025Z,99.99
2024-03-16T01:12:41.948Z,99.99
2024-03-16T01:13:41.973Z,99.99
2024-03-16T01:14:41.995Z,99.99
2024-03-16T01:15:42.770Z,99.99
2024-03-16T01:16:42.027Z,99.99
2024-03-16T01:17:42.110Z,99.99
2024-03-16T01:18:42.074Z,99.99
2024-03-16T01:19:42.066Z,99.99
2024-03-16T01:20:42.412Z,99.99
2024-03-16T01:21:42.195Z,99.99
2024-03-16T01:22:42.212Z,99.99
2024-03-16T01:23:42.126Z,99.99
2024-03-16T01:24:42.228Z,99.99
2024-03-16T01:25:42.176Z,99.99
2024-03-16T01:26:42.186Z,99.99
2024-03-16T01:27:42.197Z,99.99
2024-03-16T01:28:42.216Z,99.99
2024-03-16T01:29:42.279Z,99.99
2024-03-16T01:30:42.282Z,99.99
2024-03-16T01:31:42.282Z,99.99
2024-03-16T01:32:42.345Z,99.99
2024-03-16T01:33:42.353Z,99.99
2024-03-16T01:34:42.341Z,99.99
2024-03-16T01:35:42.368Z,99.99
2024-03-16T01:36:42.419Z,99.99
2024-03-16T01:37:42.377Z,99.99
2024-03-16T01:38:42.382Z,99.99
2024-03-16T01:39:42.453Z,99.99
2024-03-16T01:40:42.425Z,99.99
2024-03-16T01:41:42.472Z,99.99
2024-03-16T01:42:42.528Z,99.99
2024-03-16T01:43:42.477Z,99.99
2024-03-16T01:44:42.500Z,99.99
2024-03-16T01:45:42.544Z,99.99
2024-03-16T01:46:42.633Z,99.99
2024-03-16T01:47:42.599Z,99.99
2024-03-16T01:48:42.582Z,99.99
2024-03-16T01:49:42.582Z,99.99
2024-03-16T01:50:42.596Z,99.99
2024-03-16T01:51:42.694Z,99.99
2024-03-16T01:52:42.642Z,99.99
2024-03-16T01:53:42.657Z,99.99
2024-03-16T01:54:42.682Z,99.99
2024-03-16T01:55:42.691Z,99.99
2024-03-16T01:56:42.730Z,99.99
2024-03-16T01:57:42.843Z,99.99
2024-03-16T01:58:42.748Z,99.99
2024-03-16T01:59:42.760Z,99.99
2024-03-16T02:00:42.808Z,99.99
2024-03-16T02:01:42.950Z,99.99
2024-03-16T02:02:42.840Z,99.99
2024-03-16T02:03:42.901Z,99.99
2024-03-16T02:04:42.847Z,99.99
2024-03-16T02:05:42.931Z,99.99
2024-03-16T02:06:42.913Z,99.99
2024-03-16T02:07:42.915Z,99.99
2024-03-16T02:08:42.946Z,99.99
2024-03-16T02:09:42.954Z,99.99
2024-03-16T02:10:43.045Z,99.99
2024-03-16T02:11:42.979Z,99.99
2024-03-16T02:12:42.988Z,99.99
2024-03-16T02:13:43.031Z,99.99
2024-03-16T02:14:43.020Z,99.99
2024-03-16T02:15:43.076Z,99.99
2024-03-16T02:16:43.056Z,99.99
2024-03-16T02:17:43.144Z,99.99
2024-03-16T02:18:43.128Z,99.99
2024-03-16T02:19:43.111Z,99.99
2024-03-16T02:20:43.124Z,99.69
2024-03-16T02:21:43.196Z,99.54
2024-03-16T02:22:43.193Z,99.24
2024-03-16T02:23:43.222Z,99.44
2024-03-16T02:24:43.207Z,99.54
2024-03-16T02:25:43.246Z,99.34
2024-03-16T02:26:43.233Z,99.34
2024-03-16T02:27:43.268Z,99.54
2024-03-16T02:28:43.304Z,99.54
2024-03-16T02:29:43.289Z,99.44
2024-03-16T02:30:43.348Z,99.54
2024-03-16T02:31:43.324Z,98.93
2024-03-16T02:32:43.392Z,99.13
2024-03-16T02:33:43.392Z,98.52
2024-03-16T02:34:43.371Z,98.37
2024-03-16T02:35:43.411Z,98.21
2024-03-16T02:36:43.450Z,98.47
2024-03-16T02:37:43.468Z,98.78
2024-03-16T02:38:43.502Z,98.32
2024-03-16T02:39:43.477Z,98.21
2024-03-16T02:40:43.508Z,98.07
2024-03-16T02:41:43.500Z,98.32
2024-03-16T02:42:43.564Z,98.52
2024-03-16T02:43:43.569Z,98.16
2024-03-16T02:44:43.554Z,98.21
2024-03-16T02:45:43.625Z,98.52
2024-03-16T02:46:43.588Z,98.47
2024-03-16T02:47:43.668Z,98.16
2024-03-16T02:48:43.626Z,98.16
2024-03-16T02:49:43.670Z,98.37
2024-03-16T02:50:43.710Z,96.83
2024-03-16T02:51:43.688Z,97.24
2024-03-16T02:52:43.691Z,97.14
2024-03-16T02:53:43.709Z,96.83
2024-03-16T02:54:43.820Z,96.94
2024-03-16T02:55:43.773Z,97.34
2024-03-16T02:56:43.758Z,97.65
2024-03-16T02:57:43.810Z,97.34
2024-03-16T02:58:43.801Z,97.24
2024-03-16T02:59:43.837Z,97.24
2024-03-16T03:00:43.903Z,97.14
2024-03-16T03:01:43.943Z,96.94
2024-03-16T03:02:43.860Z,97.65
2024-03-16T03:03:43.893Z,96.73
2024-03-16T03:04:43.899Z,97.24
2024-03-16T03:05:43.918Z,97.14
2024-03-16T03:06:43.990Z,97.24
2024-03-16T03:07:43.956Z,97.14
2024-03-16T03:08:43.982Z,96.83
2024-03-16T03:09:44.008Z,97.14
2024-03-16T03:10:44.067Z,96.63
2024-03-16T03:11:44.197Z,96.73
2024-03-16T03:12:44.094Z,96.63
2024-03-16T03:13:45.079Z,96.73
2024-03-16T03:14:44.082Z,96.83
2024-03-16T03:15:44.122Z,96.83
2024-03-16T03:16:44.114Z,96.67
2024-03-16T03:17:44.203Z,97.04
2024-03-16T03:18:44.161Z,96.83
2024-03-16T03:19:44.189Z,96.12
2024-03-16T03:20:44.186Z,96.01
2024-03-16T03:21:44.237Z,96.12
2024-03-16T03:22:44.261Z,95.40
2024-03-16T03:23:44.250Z,94.89
2024-03-16T03:24:44.265Z,95.61
2024-03-16T03:25:44.285Z,94.89
2024-03-16T03:26:44.284Z,95.61
2024-03-16T03:27:44.371Z,95.40
2024-03-16T03:28:44.356Z,95.40
2024-03-16T03:29:44.348Z,95.61
2024-03-16T03:30:44.367Z,95.61
2024-03-16T03:31:44.395Z,95.40
2024-03-16T03:32:44.448Z,95.50
2024-03-16T03:33:44.489Z,95.81
2024-03-16T03:34:44.436Z,95.81
2024-03-16T03:35:44.444Z,95.81
2024-03-16T03:36:44.522Z,95.95
2024-03-16T03:37:44.548Z,95.91
2024-03-16T03:38:44.546Z,94.68
2024-03-16T03:39:44.637Z,95.50
2024-03-16T03:40:44.543Z,95.81
2024-03-16T03:41:44.556Z,96.01
2024-03-16T03:42:44.575Z,95.61
2024-03-16T03:43:44.608Z,94.89
2024-03-16T03:44:44.649Z,94.37
2024-03-16T03:45:44.672Z,95.40
2024-03-16T03:46:44.653Z,94.33
2024-03-16T03:47:44.671Z,94.48
2024-03-16T03:48:44.730Z,94.78
2024-03-16T03:49:44.697Z,94.37
2024-03-16T03:50:44.736Z,95.40
2024-03-16T03:51:44.785Z,95.61
2024-03-16T03:52:44.759Z,95.40
2024-03-16T03:53:44.773Z,95.61
2024-03-16T03:54:44.889Z,95.75
2024-03-16T03:55:44.802Z,95.40
2024-03-16T03:56:44.823Z,95.09
2024-03-16T03:57:44.836Z,95.09
2024-03-16T03:58:44.852Z,95.40
2024-03-16T03:59:44.890Z,95.86
2024-03-16T04:00:44.955Z,95.34
2024-03-16T04:01:44.943Z,95.65
2024-03-16T04:02:44.945Z,95.91
2024-03-16T04:03:45.102Z,95.81
2024-03-16T04:04:44.985Z,96.94
2024-03-16T04:05:45.001Z,96.73
2024-03-16T04:06:45.023Z,97.19
2024-03-16T04:07:45.043Z,97.91
2024-03-16T04:08:45.037Z,98.72
2024-03-16T04:09:45.059Z,98.32
2024-03-16T04:10:45.112Z,99.59
2024-03-16T04:11:45.089Z,99.38
2024-03-16T04:12:45.118Z,99.99
2024-03-16T04:13:45.122Z,99.99
2024-03-16T04:14:45.136Z,99.99
2024-03-16T04:15:45.242Z,99.99
2024-03-16T04:16:45.191Z,99.99
2024-03-16T04:17:45.191Z,99.99
2024-03-16T04:18:45.263Z,99.99
2024-03-16T04:19:45.232Z,99.99
2024-03-16T04:20:45.236Z,99.99
2024-03-16T04:21:45.355Z,99.99
2024-03-16T04:22:45.291Z,99.99
2024-03-16T04:23:45.296Z,99.99
2024-03-16T04:24:45.355Z,99.99
2024-03-16T04:25:45.370Z,99.99
2024-03-16T04:26:45.365Z,99.99
2024-03-16T04:27:45.423Z,99.99
2024-03-16T04:28:45.387Z,99.99
2024-03-16T04:29:45.397Z,99.99
2024-03-16T04:30:45.432Z,99.99
2024-03-16T04:31:45.459Z,99.99
2024-03-16T04:32:45.491Z,99.99
2024-03-16T04:33:45.558Z,99.99
2024-03-16T04:34:45.475Z,99.99
2024-03-16T04:35:46.282Z,99.99
2024-03-16T04:36:45.551Z,99.99
2024-03-16T04:37:45.573Z,99.99
2024-03-16T04:38:45.542Z,99.99
2024-03-16T04:39:45.579Z,99.99
2024-03-16T04:40:45.585Z,99.99
2024-03-16T04:41:45.593Z,99.99
2024-03-16T04:42:45.689Z,99.99
2024-03-16T04:43:45.675Z,99.99
2024-03-16T04:44:45.647Z,99.99
2024-03-16T04:45:45.722Z,99.99
2024-03-16T04:46:45.688Z,99.99
2024-03-16T04:47:45.763Z,99.99
2024-03-16T04:48:45.766Z,99.99
2024-03-16T04:49:45.780Z,99.99
2024-03-16T04:50:48.681Z,99.99
2024-03-16T04:51:45.810Z,99.99
2024-03-16T04:52:45.807Z,99.99
2024-03-16T04:53:45.795Z,99.99
2024-03-16T04:54:45.873Z,99.99
2024-03-16T04:55:45.896Z,99.99
2024-03-16T04:56:45.879Z,99.99
2024-03-16T04:57:45.895Z,99.99
2024-03-16T04:58:45.890Z,99.99
2024-03-16T04:59:45.925Z,99.99
2024-03-16T05:00:46.027Z,99.99
2024-03-16T05:01:46.016Z,99.99
2024-03-16T05:02:45.957Z,99.99
2024-03-16T05:03:46.007Z,99.99
2024-03-16T05:04:46.012Z,99.99
2024-03-16T05:05:46.026Z,99.99
2024-03-16T05:06:46.050Z,99.99
2024-03-16T05:07:46.035Z,99.99
2024-03-16T05:08:46.049Z,99.99
2024-03-16T05:09:46.091Z,99.99
2024-03-16T05:10:46.156Z,99.99
2024-03-16T05:11:46.105Z,99.99
2024-03-16T05:12:46.152Z,99.99
2024-03-16T05:13:46.141Z,99.99
2024-03-16T05:14:46.167Z,99.99
2024-03-16T05:15:46.234Z,99.99
2024-03-16T05:16:46.218Z,99.99
2024-03-16T05:17:46.286Z,99.99
2024-03-16T05:18:46.328Z,99.99
2024-03-16T05:19:46.247Z,99.99
2024-03-16T05:20:46.256Z,99.99
2024-03-16T05:21:46.321Z,99.99
2024-03-16T05:22:46.323Z,99.99
2024-03-16T05:23:46.304Z,99.99
2024-03-16T05:24:46.362Z,99.99
2024-03-16T05:25:46.344Z,99.99
2024-03-16T05:26:46.359Z,99.99
2024-03-16T05:27:46.461Z,99.99
2024-03-16T05:28:46.395Z,99.99
2024-03-16T05:29:46.420Z,99.99
2024-03-16T05:30:46.453Z,99.99
2024-03-16T05:31:46.472Z,99.99
2024-03-16T05:32:46.520Z,99.99
2024-03-16T05:33:46.530Z,99.99
2024-03-16T05:34:46.519Z,99.99
2024-03-16T05:35:46.514Z,99.99
2024-03-16T05:36:46.537Z,99.99
2024-03-16T05:37:46.549Z,99.99
2024-03-16T05:38:46.562Z,99.99
2024-03-16T05:39:46.625Z,99.99
2024-03-16T05:40:46.600Z,99.99
2024-03-16T05:41:46.611Z,99.99
2024-03-16T05:42:46.667Z,99.99
2024-03-16T05:43:46.751Z,99.99
2024-03-16T05:44:46.675Z,99.99
2024-03-16T05:45:46.703Z,99.99
2024-03-16T05:46:46.695Z,99.99
2024-03-16T05:47:46.747Z,99.99
2024-03-16T05:48:46.839Z,99.99
2024-03-16T05:49:46.766Z,99.99
2024-03-16T05:50:46.767Z,99.99
2024-03-16T05:51:46.861Z,99.99
2024-03-16T05:52:46.813Z,99.99
2024-03-16T05:53:46.877Z,99.99
2024-03-16T05:54:46.869Z,99.99
2024-03-16T05:55:46.856Z,99.99
2024-03-16T05:56:46.865Z,99.99
2024-03-16T05:57:46.928Z,99.99
2024-03-16T05:58:46.903Z,99.99
2024-03-16T05:59:46.944Z,99.99
2024-03-16T06:00:46.962Z,99.99
2024-03-16T06:01:47.000Z,99.99
2024-03-16T06:02:46.982Z,99.99
2024-03-16T06:03:47.038Z,99.99
2024-03-16T06:04:47.040Z,99.99
2024-03-16T06:05:47.085Z,99.99
2024-03-16T06:06:47.092Z,99.99
2024-03-16T06:07:47.064Z,99.99
2024-03-16T06:08:47.067Z,99.99
2024-03-16T06:09:47.211Z,99.99
2024-03-16T06:10:47.179Z,99.99
2024-03-16T06:11:47.129Z,99.99
2024-03-16T06:12:47.184Z,99.99
2024-03-16T06:13:47.162Z,99.99
2024-03-16T06:14:47.177Z,99.99
2024-03-16T06:15:47.282Z,99.99
2024-03-16T06:16:47.205Z,99.99
2024-03-16T06:17:47.252Z,99.99
2024-03-16T06:18:47.328Z,99.99
2024-03-16T06:19:47.275Z,99.99
2024-03-16T06:20:47.305Z,99.99
2024-03-16T06:21:47.376Z,99.99
2024-03-16T06:22:47.305Z,99.99
2024-03-16T06:23:47.345Z,99.99
2024-03-16T06:24:47.349Z,99.99
2024-03-16T06:25:47.383Z,99.99
2024-03-16T06:26:47.414Z,99.99
2024-03-16T06:27:47.424Z,99.99
2024-03-16T06:28:47.409Z,99.99
2024-03-16T06:29:47.419Z,99.99
2024-03-16T06:30:47.475Z,99.99
2024-03-16T06:31:47.476Z,99.99
2024-03-16T06:32:47.495Z,99.99
2024-03-16T06:33:47.571Z,99.99
2024-03-16T06:34:47.514Z,99.99
2024-03-16T06:35:47.524Z,99.62
2024-03-16T06:36:47.613Z,99.99
2024-03-16T06:37:47.553Z,99.46
2024-03-16T06:38:47.591Z,99.99
2024-03-16T06:39:47.655Z,99.99
2024-03-16T06:40:47.592Z,99.99
2024-03-16T06:41:47.618Z,99.46
2024-03-16T06:42:47.674Z,99.99
2024-03-16T06:43:47.642Z,99.99
2024-03-16T06:44:47.714Z,99.99
2024-03-16T06:45:47.703Z,99.99
2024-03-16T06:46:47.690Z,99.99
2024-03-16T06:47:47.751Z,99.66
2024-03-16T06:48:47.743Z,99.99
2024-03-16T06:49:47.772Z,99.99
2024-03-16T06:50:47.781Z,99.99
2024-03-16T06:51:47.879Z,99.91
2024-03-16T06:52:47.794Z,99.99
2024-03-16T06:53:47.824Z,99.99
2024-03-16T06:54:47.886Z,99.99
2024-03-16T06:55:47.898Z,99.99
2024-03-16T06:56:47.865Z,99.99
2024-03-16T06:57:47.923Z,99.99
2024-03-16T06:58:47.878Z,99.99
2024-03-16T06:59:47.895Z,99.99
2024-03-16T07:00:47.983Z,99.99
2024-03-16T07:01:47.991Z,99.99
2024-03-16T07:02:47.979Z,99.99
2024-03-16T07:03:47.977Z,99.99
2024-03-16T07:04:48.004Z,99.99
2024-03-16T07:05:48.031Z,99.76
2024-03-16T07:06:48.039Z,99.99
2024-03-16T07:07:48.049Z,99.81
2024-03-16T07:08:48.055Z,98.79
2024-03-16T07:09:48.075Z,99.04
2024-03-16T07:10:48.069Z,98.93
2024-03-16T07:11:48.789Z,99.40
2024-03-16T07:12:48.156Z,99.30
2024-03-16T07:13:48.252Z,97.90
2024-03-16T07:14:48.148Z,98.83
2024-03-16T07:15:48.236Z,98.83
2024-03-16T07:16:48.167Z,99.09
2024-03-16T07:17:48.294Z,98.72
2024-03-16T07:18:48.228Z,99.51
2024-03-16T07:19:48.242Z,99.60
2024-03-16T07:20:48.245Z,99.51
2024-03-16T07:21:48.268Z,99.30
2024-03-16T07:22:48.293Z,99.30
2024-03-16T07:23:48.314Z,99.30
2024-03-16T07:24:48.334Z,98.37
2024-03-16T07:25:48.333Z,98.79
2024-03-16T07:26:48.332Z,97.96
2024-03-16T07:27:48.401Z,98.37
2024-03-16T07:28:48.354Z,98.16
2024-03-16T07:29:48.403Z,97.86
2024-03-16T07:30:48.489Z,97.14
2024-03-16T07:31:48.407Z,98.88
2024-03-16T07:32:48.442Z,99.30
2024-03-16T07:33:48.589Z,97.60
2024-03-16T07:34:48.456Z,96.21
2024-03-16T07:35:48.479Z,96.21
2024-03-16T07:36:48.531Z,97.08
2024-03-16T07:37:48.507Z,98.32
2024-03-16T07:38:48.546Z,98.47
2024-03-16T07:39:48.564Z,97.34
2024-03-16T07:40:48.556Z,98.52
2024-03-16T07:41:50.031Z,97.60
2024-03-16T07:42:48.596Z,95.84
2024-03-16T07:43:48.640Z,95.64
2024-03-16T07:44:48.623Z,95.84
2024-03-16T07:45:48.708Z,97.60
2024-03-16T07:46:48.646Z,95.33
2024-03-16T07:47:48.782Z,94.71
2024-03-16T07:48:48.725Z,95.74
2024-03-16T07:49:48.711Z,95.95
2024-03-16T07:50:48.720Z,94.92
2024-03-16T07:51:48.774Z,96.25
2024-03-16T07:52:48.785Z,97.49
2024-03-16T07:53:48.777Z,95.68
2024-03-16T07:54:48.837Z,95.58
2024-03-16T07:55:48.813Z,97.08
2024-03-16T07:56:50.808Z,97.33
2024-03-16T07:57:48.895Z,97.33
2024-03-16T07:58:48.872Z,98.67
2024-03-16T07:59:48.867Z,97.13
2024-03-16T08:00:48.907Z,97.53
2024-03-16T08:01:49.002Z,96.41
2024-03-16T08:02:48.957Z,96.41
2024-03-16T08:03:48.983Z,96.09
2024-03-16T08:04:48.941Z,96.09
2024-03-16T08:05:48.962Z,97.49
2024-03-16T08:06:49.003Z,97.18
2024-03-16T08:07:49.029Z,96.36
2024-03-16T08:08:49.023Z,96.05
2024-03-16T08:09:49.050Z,94.51
2024-03-16T08:10:49.033Z,96.15
2024-03-16T08:11:49.087Z,95.33
2024-03-16T08:12:49.164Z,94.51
2024-03-16T08:13:49.123Z,94.20
2024-03-16T08:14:49.092Z,94.92
2024-03-16T08:15:49.151Z,93.16
2024-03-16T08:16:49.131Z,92.14
2024-03-16T08:17:49.214Z,93.01
2024-03-16T08:18:49.287Z,92.90
2024-03-16T08:19:49.184Z,92.76
2024-03-16T08:20:49.190Z,92.65
2024-03-16T08:21:49.282Z,91.93
2024-03-16T08:22:49.247Z,92.55
2024-03-16T08:23:49.283Z,91.62
2024-03-16T08:24:49.286Z,92.44
2024-03-16T08:25:49.273Z,92.92
2024-03-16T08:26:49.285Z,91.00
2024-03-16T08:27:49.394Z,92.96
2024-03-16T08:28:49.390Z,91.31
2024-03-16T08:29:49.353Z,91.93
2024-03-16T08:30:49.389Z,93.99
2024-03-16T08:31:49.371Z,93.31
2024-03-16T08:32:49.480Z,93.31
2024-03-16T08:33:49.449Z,93.01
2024-03-16T08:34:49.430Z,93.99
2024-03-16T08:35:49.434Z,93.31
2024-03-16T08:36:49.487Z,94.24
2024-03-16T08:37:49.470Z,94.81
2024-03-16T08:38:49.545Z,95.74
2024-03-16T08:39:49.573Z,94.96
2024-03-16T08:40:49.559Z,93.81
2024-03-16T08:41:49.618Z,94.62
2024-03-16T08:42:49.580Z,96.42
2024-03-16T08:43:49.606Z,96.83
2024-03-16T08:44:49.580Z,96.05
2024-03-16T08:45:52.423Z,97.66
2024-03-16T08:46:49.612Z,97.66
2024-03-16T08:47:49.665Z,95.64
2024-03-16T08:48:49.745Z,96.42
2024-03-16T08:49:49.720Z,95.32
2024-03-16T08:50:49.681Z,96.31
2024-03-16T08:51:49.808Z,96.79
2024-03-16T08:52:49.706Z,95.03
2024-03-16T08:53:49.723Z,96.27
2024-03-16T08:54:49.880Z,95.14
2024-03-16T08:55:49.763Z,94.78
2024-03-16T08:56:49.791Z,96.44
2024-03-16T08:57:49.859Z,93.75
2024-03-16T08:58:49.807Z,94.99
2024-03-16T08:59:49.833Z,96.39
2024-03-16T09:00:50.132Z,94.84
2024-03-16T09:01:50.032Z,94.64
2024-03-16T09:02:49.872Z,94.64
2024-03-16T09:03:49.925Z,94.32
2024-03-16T09:04:52.505Z,94.23
2024-03-16T09:05:49.918Z,92.99
2024-03-16T09:06:49.986Z,94.53
2024-03-16T09:07:49.968Z,94.59
2024-03-16T09:08:49.956Z,94.28
2024-03-16T09:09:50.007Z,93.77
2024-03-16T09:10:49.990Z,94.24
2024-03-16T09:11:50.077Z,91.87
2024-03-16T09:12:50.121Z,92.76
2024-03-16T09:13:50.055Z,90.39
2024-03-16T09:14:50.066Z,90.59
2024-03-16T09:15:50.102Z,89.77
2024-03-16T09:16:50.369Z,87.19
2024-03-16T09:17:50.407Z,89.05
2024-03-16T09:18:50.189Z,88.95
2024-03-16T09:19:50.179Z,87.77
2024-03-16T09:20:50.186Z,88.35
2024-03-16T09:21:50.217Z,86.19
2024-03-16T09:22:50.272Z,86.29
2024-03-16T09:23:50.261Z,88.39
2024-03-16T09:24:50.305Z,85.92
2024-03-16T09:25:50.269Z,87.12
2024-03-16T09:26:50.260Z,88.24
2024-03-16T09:27:50.347Z,86.43
2024-03-16T09:28:50.291Z,86.43
2024-03-16T09:29:50.306Z,85.65
2024-03-16T09:30:52.314Z,85.75
2024-03-16T09:31:50.341Z,85.86
2024-03-16T09:32:50.401Z,84.05
2024-03-16T09:33:50.397Z,84.00
2024-03-16T09:34:50.395Z,83.49
2024-03-16T09:35:50.420Z,83.42
2024-03-16T09:36:50.457Z,82.40
2024-03-16T09:37:50.470Z,82.19
2024-03-16T09:38:50.480Z,81.16
2024-03-16T09:39:50.504Z,82.56
2024-03-16T09:40:50.488Z,82.25
2024-03-16T09:41:50.608Z,81.33
2024-03-16T09:42:50.602Z,82.35
2024-03-16T09:43:50.718Z,80.91
2024-03-16T09:44:50.558Z,80.91
2024-03-16T09:45:50.616Z,78.03
2024-03-16T09:46:50.594Z,80.51
2024-03-16T09:47:50.715Z,77.76
2024-03-16T09:48:50.681Z,79.61
2024-03-16T09:49:50.668Z,78.65
2024-03-16T09:50:50.680Z,78.55
2024-03-16T09:51:50.695Z,80.51
2024-03-16T09:52:50.686Z,78.58
2024-03-16T09:53:50.721Z,79.93
2024-03-16T09:54:50.763Z,79.51
2024-03-16T09:55:50.744Z,81.30
2024-03-16T09:56:50.756Z,81.47
2024-03-16T09:57:50.838Z,80.68
2024-03-16T09:58:50.787Z,81.51
2024-03-16T09:59:50.842Z,82.02
2024-03-16T10:00:50.892Z,81.40
2024-03-16T10:01:50.848Z,82.74
2024-03-16T10:02:50.855Z,82.23
2024-03-16T10:03:50.893Z,83.15
2024-03-16T10:04:50.962Z,83.47
2024-03-16T10:05:50.902Z,81.51
2024-03-16T10:06:50.969Z,82.91
2024-03-16T10:07:51.020Z,81.26
2024-03-16T10:08:50.958Z,80.89
2024-03-16T10:09:51.061Z,80.99
2024-03-16T10:10:50.976Z,82.50
2024-03-16T10:11:51.019Z,80.95
2024-03-16T10:12:51.109Z,80.75
2024-03-16T10:13:51.049Z,80.54
2024-03-16T10:14:51.045Z,82.35
2024-03-16T10:15:51.142Z,79.58
2024-03-16T10:16:51.144Z,80.09
2024-03-16T10:17:51.091Z,80.40
2024-03-16T10:18:51.149Z,79.64
2024-03-16T10:19:51.129Z,78.34
2024-03-16T10:20:51.144Z,79.88
2024-03-16T10:21:51.555Z,82.32
2024-03-16T10:22:51.189Z,79.61
2024-03-16T10:23:51.223Z,78.89
2024-03-16T10:24:51.294Z,75.84
2024-03-16T10:25:51.230Z,76.56
2024-03-16T10:26:51.268Z,76.28
2024-03-16T10:27:51.302Z,75.87
2024-03-16T10:28:51.280Z,74.53
2024-03-16T10:29:51.314Z,74.43
2024-03-16T10:30:51.375Z,76.28
2024-03-16T10:31:55.119Z,75.42
2024-03-16T10:32:51.391Z,76.35
2024-03-16T10:33:51.400Z,77.00
2024-03-16T10:34:51.370Z,74.43
2024-03-16T10:35:51.418Z,74.53
2024-03-16T10:36:51.445Z,75.56
2024-03-16T10:37:51.904Z,76.49
2024-03-16T10:38:51.466Z,78.51
2024-03-16T10:39:51.457Z,74.43
2024-03-16T10:40:51.477Z,77.31
2024-03-16T10:41:51.489Z,77.93
2024-03-16T10:42:51.566Z,76.18
2024-03-16T10:43:51.542Z,74.63
2024-03-16T10:44:53.953Z,74.46
2024-03-16T10:45:51.563Z,74.95
2024-03-16T10:46:51.580Z,74.53
2024-03-16T10:47:51.597Z,76.79
2024-03-16T10:48:51.607Z,73.81
2024-03-16T10:49:51.616Z,74.84
2024-03-16T10:50:54.677Z,75.15
2024-03-16T10:51:51.677Z,74.26
2024-03-16T10:52:51.702Z,74.43
2024-03-16T10:53:51.689Z,73.54
2024-03-16T10:54:51.723Z,74.63
2024-03-16T10:55:51.720Z,74.02
2024-03-16T10:56:53.877Z,75.56
2024-03-16T10:57:51.752Z,74.33
2024-03-16T10:58:51.770Z,74.26
2024-03-16T10:59:51.811Z,74.22
2024-03-16T11:00:51.840Z,74.53
2024-03-16T11:01:51.815Z,75.67
2024-03-16T11:02:53.488Z,76.18
2024-03-16T11:03:51.854Z,74.91
2024-03-16T11:04:51.868Z,76.56
2024-03-16T11:05:51.885Z,75.01
2024-03-16T11:06:51.901Z,77.89
2024-03-16T11:07:51.925Z,75.52
2024-03-16T11:08:51.932Z,74.33
2024-03-16T11:09:51.951Z,76.14
2024-03-16T11:10:51.987Z,75.63
2024-03-16T11:11:51.982Z,75.22
2024-03-16T11:12:52.067Z,73.88
2024-03-16T11:13:52.421Z,74.19
2024-03-16T11:14:52.034Z,74.08
2024-03-16T11:15:52.100Z,74.40
2024-03-16T11:16:52.087Z,74.40
2024-03-16T11:17:52.083Z,74.40
2024-03-16T11:18:52.099Z,73.95
2024-03-16T11:19:52.138Z,74.08
2024-03-16T11:20:52.207Z,73.98
2024-03-16T11:21:52.478Z,73.47
2024-03-16T11:22:52.176Z,74.19
2024-03-16T11:23:52.194Z,74.12
2024-03-16T11:24:52.250Z,74.70
2024-03-16T11:25:52.264Z,76.04
2024-03-16T11:26:52.268Z,75.73
2024-03-16T11:27:52.263Z,74.40
2024-03-16T11:28:52.266Z,75.87
2024-03-16T11:29:52.379Z,74.70
2024-03-16T11:30:52.310Z,76.66
2024-03-16T11:31:52.342Z,75.52
2024-03-16T11:32:52.340Z,74.50
2024-03-16T11:33:52.347Z,75.84
2024-03-16T11:34:52.401Z,77.17
2024-03-16T11:35:52.383Z,75.73
2024-03-16T11:36:52.405Z,76.35
2024-03-16T11:37:52.412Z,77.55
2024-03-16T11:38:52.439Z,76.11
2024-03-16T11:39:52.494Z,73.64
2024-03-16T11:40:52.468Z,74.50
2024-03-16T11:41:52.486Z,72.51
2024-03-16T11:42:52.502Z,71.41
2024-03-16T11:43:52.519Z,72.03
2024-03-16T11:44:52.578Z,71.41
2024-03-16T11:45:52.555Z,71.82
2024-03-16T11:46:52.571Z,72.64
2024-03-16T11:47:52.588Z,72.34
2024-03-16T11:48:52.603Z,72.41
2024-03-16T11:49:52.676Z,72.92
2024-03-16T11:50:52.635Z,75.15
2024-03-16T11:51:52.686Z,74.22
2024-03-16T11:52:52.670Z,72.61
2024-03-16T11:53:52.723Z,74.36
2024-03-16T11:54:52.736Z,71.79
2024-03-16T11:55:52.813Z,72.24
2024-03-16T11:56:52.843Z,73.13
2024-03-16T11:57:52.776Z,72.24
2024-03-16T11:58:52.780Z,71.20
2024-03-16T11:59:52.824Z,72.75
2024-03-16T12:00:52.836Z,72.13
2024-03-16T12:01:52.849Z,71.92
2024-03-16T12:02:52.840Z,71.41
2024-03-16T12:03:52.910Z,71.62
2024-03-16T12:04:53.014Z,72.92
2024-03-16T12:05:52.918Z,73.23
2024-03-16T12:06:52.906Z,72.00
2024-03-16T12:07:52.924Z,73.85
2024-03-16T12:08:52.987Z,72.27
2024-03-16T12:09:52.957Z,72.06
2024-03-16T12:10:53.000Z,69.70
2024-03-16T12:11:52.996Z,71.51
2024-03-16T12:12:53.011Z,71.38
2024-03-16T12:13:53.049Z,67.71
2024-03-16T12:14:53.042Z,69.98
2024-03-16T12:15:53.056Z,67.68
2024-03-16T12:16:53.116Z,67.89
2024-03-16T12:17:53.098Z,68.54
2024-03-16T12:18:53.118Z,67.10
2024-03-16T12:19:53.146Z,68.30
2024-03-16T12:20:53.148Z,70.36
2024-03-16T12:21:53.229Z,70.94
2024-03-16T12:22:53.184Z,67.89
2024-03-16T12:23:53.199Z,69.02
2024-03-16T12:24:53.224Z,66.76
2024-03-16T12:25:53.233Z,68.85
2024-03-16T12:26:53.291Z,70.56
2024-03-16T12:27:53.274Z,69.23
2024-03-16T12:28:53.301Z,67.99
2024-03-16T12:29:53.305Z,68.71
2024-03-16T12:30:53.324Z,70.04
2024-03-16T12:31:53.345Z,67.68
2024-03-16T12:32:53.404Z,69.05
2024-03-16T12:33:53.383Z,70.46
2024-03-16T12:34:53.395Z,70.18
2024-03-16T12:35:53.420Z,68.02
2024-03-16T12:36:53.438Z,68.64
2024-03-16T12:37:53.472Z,68.77
2024-03-16T12:38:53.495Z,68.16
2024-03-16T12:39:53.503Z,69.29
2024-03-16T12:40:53.510Z,68.67
2024-03-16T12:41:53.517Z,70.32
2024-03-16T12:42:53.565Z,69.56
2024-03-16T12:43:53.618Z,69.67
2024-03-16T12:44:53.593Z,70.28
2024-03-16T12:45:53.612Z,69.09
2024-03-16T12:46:53.612Z,71.72
2024-03-16T12:47:54.131Z,71.59
2024-03-16T12:48:53.681Z,70.87
2024-03-16T12:49:53.664Z,68.51
2024-03-16T12:50:53.681Z,70.79
2024-03-16T12:51:53.695Z,70.18
2024-03-16T12:52:53.718Z,70.39